Time;durP1;ratioP1;P1;durP2;ratioP2;P2;SDS_P1;SDS_P2;PMS_P1;PMS_P2;Temp;Humidity;BMP_temperature;BMP_pressure;BME280_temperature;BME280_humidity;BME280_pressure;Samples;Min_cycle;Max_cycle;Signal;HPM_P1;HPM_P2
2021/12/31 00:00:40;;;;;;;6.05;2.92;;;14.10;99.90;;;;;;6159841;23;20067;-88
2021/12/31 00:03:06;;;;;;;4.82;3.00;;;14.10;99.90;;;;;;6160007;23;20048;-88
2021/12/31 00:05:31;;;;;;;5.80;3.38;;;14.10;99.90;;;;;;6184611;23;20453;-88
2021/12/31 00:07:57;;;;;;;5.25;2.65;;;14.10;99.90;;;;;;6183978;23;20016;-87
2021/12/31 00:10:23;;;;;;;9.82;3.72;;;14.10;99.90;;;;;;6184471;23;20005;-88
2021/12/31 00:12:49;;;;;;;5.45;2.40;;;14.10;99.90;;;;;;6184311;23;20006;-88
2021/12/31 00:15:24;;;;;;;4.78;2.50;;;14.10;99.90;;;;;;6184864;23;20036;-88
2021/12/31 00:17:50;;;;;;;7.65;3.08;;;14.10;99.90;;;;;;6186201;23;20011;-88
2021/12/31 00:20:22;;;;;;;5.32;2.63;;;14.10;99.90;;;;;;6184624;23;20079;-87
2021/12/31 00:23:03;;;;;;;5.28;2.65;;;14.10;99.90;;;;;;6184965;23;20016;-88
2021/12/31 00:25:34;;;;;;;4.57;2.60;;;14.10;99.90;;;;;;6185146;23;20048;-88
2021/12/31 00:28:03;;;;;;;7.72;2.92;;;14.10;99.90;;;;;;6184566;23;20427;-88
2021/12/31 00:30:31;;;;;;;5.70;2.70;;;14.10;99.90;;;;;;6184986;23;20076;-87
2021/12/31 00:33:00;;;;;;;6.05;2.70;;;14.10;99.90;;;;;;6185608;23;20005;-87
2021/12/31 00:35:26;;;;;;;5.25;2.42;;;14.10;99.90;;;;;;6190931;23;20069;-87
2021/12/31 00:37:52;;;;;;;5.82;2.53;;;14.10;99.90;;;;;;6207121;23;20032;-88
2021/12/31 00:40:19;;;;;;;5.78;2.53;;;14.10;99.90;;;;;;6212163;23;19998;-85
2021/12/31 00:42:50;;;;;;;6.10;2.55;;;14.10;99.90;;;;;;6210310;23;19989;-85
2021/12/31 00:45:18;;;;;;;7.43;2.75;;;14.10;99.90;;;;;;6183408;23;20001;-86
2021/12/31 00:47:50;;;;;;;5.45;2.30;;;14.10;99.90;;;;;;6197449;23;20048;-86
2021/12/31 00:50:16;;;;;;;6.55;2.80;;;14.10;99.90;;;;;;6187180;23;20005;-88
2021/12/31 00:52:42;;;;;;;7.15;2.35;;;14.10;99.90;;;;;;6188269;23;20023;-87
2021/12/31 00:55:10;;;;;;;4.80;2.20;;;14.10;99.90;;;;;;6186707;23;20052;-86
2021/12/31 00:57:38;;;;;;;5.75;2.22;;;14.00;99.90;;;;;;6187265;23;20051;-87
2021/12/31 01:00:07;;;;;;;4.90;2.33;;;14.10;99.90;;;;;;6186067;23;20005;-87
2021/12/31 01:02:35;;;;;;;3.53;1.95;;;14.10;99.90;;;;;;6185849;23;20305;-87
2021/12/31 01:05:03;;;;;;;6.18;2.08;;;14.10;99.90;;;;;;6185294;23;20058;-87
2021/12/31 01:07:31;;;;;;;2.85;1.85;;;14.10;99.90;;;;;;6185386;23;20055;-88
2021/12/31 01:09:57;;;;;;;4.07;2.30;;;14.10;99.90;;;;;;6185145;23;20005;-87
2021/12/31 01:12:25;;;;;;;6.72;2.05;;;14.10;99.90;;;;;;6185925;23;20035;-87
2021/12/31 01:15:01;;;;;;;4.80;1.80;;;14.10;99.90;;;;;;6185497;23;20005;-87
2021/12/31 01:20:17;;;;;;;5.80;2.20;;;14.10;99.90;;;;;;6187050;23;20087;-87
2021/12/31 01:22:43;;;;;;;6.20;2.33;;;14.00;99.90;;;;;;6185441;23;20001;-88
2021/12/31 01:25:14;;;;;;;4.95;2.30;;;14.10;99.90;;;;;;6185534;23;20032;-87
2021/12/31 01:27:46;;;;;;;3.38;1.83;;;14.10;99.90;;;;;;6185875;23;20033;-87
2021/12/31 01:30:13;;;;;;;5.32;1.95;;;14.10;99.90;;;;;;6161572;23;20035;-88
2021/12/31 01:32:43;;;;;;;3.78;1.80;;;14.10;99.90;;;;;;6185249;23;20005;-87
2021/12/31 01:35:16;;;;;;;4.85;1.73;;;14.10;99.90;;;;;;6160412;23;20017;-86
2021/12/31 01:37:44;;;;;;;5.50;2.00;;;14.10;99.90;;;;;;6161161;23;20056;-88
2021/12/31 01:40:11;;;;;;;3.53;1.92;;;14.10;99.90;;;;;;6185709;23;20320;-87
2021/12/31 01:42:39;;;;;;;2.80;1.70;;;14.10;99.90;;;;;;6185352;23;20108;-87
2021/12/31 01:45:12;;;;;;;4.50;2.33;;;14.00;99.90;;;;;;6184723;23;20004;-86
2021/12/31 01:50:20;;;;;;;;;;;14.10;99.90;;;;;;6197311;23;20015;-87
2021/12/31 01:52:46;;;;;;;5.22;2.17;;;14.10;99.90;;;;;;6185014;23;19912;-86
2021/12/31 01:55:15;;;;;;;4.00;1.70;;;14.00;99.90;;;;;;6185829;23;20305;-86
2021/12/31 01:57:47;;;;;;;3.63;1.60;;;14.00;99.90;;;;;;6184951;23;20005;-87
2021/12/31 02:00:16;;;;;;;4.05;1.90;;;14.00;99.90;;;;;;6161145;23;20009;-88
2021/12/31 02:02:46;;;;;;;3.63;1.50;;;14.00;99.90;;;;;;6185100;23;20033;-86
2021/12/31 02:05:12;;;;;;;3.75;2.17;;;14.00;99.90;;;;;;6185365;23;20088;-86
2021/12/31 02:07:38;;;;;;;6.13;2.00;;;14.10;99.90;;;;;;6185046;23;20009;-87
2021/12/31 02:10:05;;;;;;;3.05;1.70;;;14.00;99.90;;;;;;6184995;23;20040;-87
2021/12/31 02:12:32;;;;;;;1.95;1.45;;;14.10;99.90;;;;;;6185166;23;19997;-86
2021/12/31 02:14:58;;;;;;;4.25;1.63;;;14.10;99.90;;;;;;6161281;23;20009;-87
2021/12/31 02:17:26;;;;;;;4.28;1.75;;;14.10;99.90;;;;;;6185792;23;20280;-87
2021/12/31 02:20:03;;;;;;;3.80;1.55;;;14.10;99.90;;;;;;6164125;23;20005;-87
2021/12/31 02:22:34;;;;;;;5.32;2.05;;;14.10;99.90;;;;;;6187969;23;20004;-86
2021/12/31 02:25:01;;;;;;;4.47;1.40;;;14.10;99.90;;;;;;6200549;23;20009;-88
2021/12/31 02:27:27;;;;;;;5.38;1.90;;;14.10;99.90;;;;;;6213020;23;19985;-86
2021/12/31 02:29:56;;;;;;;4.60;1.95;;;14.00;99.90;;;;;;6213267;23;20037;-88
2021/12/31 02:32:24;;;;;;;2.72;1.30;;;14.10;99.90;;;;;;6211667;23;20009;-87
2021/12/31 02:34:51;;;;;;;5.00;1.80;;;14.10;99.90;;;;;;6209044;23;20017;-83
2021/12/31 02:37:17;;;;;;;5.80;1.67;;;14.10;99.90;;;;;;6186096;23;20013;-87
2021/12/31 02:39:46;;;;;;;4.38;1.60;;;14.10;99.90;;;;;;6185147;23;20123;-87
2021/12/31 02:42:11;;;;;;;4.10;1.73;;;14.10;99.90;;;;;;6135901;23;20035;-86
2021/12/31 02:44:40;;;;;;;5.30;1.90;;;14.10;99.90;;;;;;6160175;23;20031;-87
2021/12/31 02:47:07;;;;;;;5.05;1.80;;;14.10;99.90;;;;;;6184608;23;20005;-87
2021/12/31 02:49:38;;;;;;;3.13;1.80;;;14.10;99.90;;;;;;6185161;23;20001;-87
2021/12/31 02:52:05;;;;;;;4.57;1.70;;;14.10;99.90;;;;;;6184894;23;20004;-87
2021/12/31 02:54:32;;;;;;;5.07;1.98;;;14.10;99.90;;;;;;6185068;23;20005;-87
2021/12/31 02:57:02;;;;;;;4.55;1.70;;;14.10;99.90;;;;;;6185508;23;20392;-86
2021/12/31 02:59:31;;;;;;;3.90;1.63;;;14.10;99.90;;;;;;6160397;23;20462;-86
2021/12/31 03:01:57;;;;;;;3.28;1.60;;;14.10;99.90;;;;;;6184555;23;20087;-87
2021/12/31 03:04:30;;;;;;;5.28;1.40;;;14.10;99.90;;;;;;6185022;23;20001;-87
2021/12/31 03:07:07;;;;;;;4.25;1.83;;;14.20;99.90;;;;;;6184728;23;20339;-87
2021/12/31 03:09:38;;;;;;;2.85;1.48;;;14.20;99.90;;;;;;6184993;23;20046;-87
2021/12/31 03:12:07;;;;;;;4.28;1.75;;;14.20;99.90;;;;;;6184024;23;20012;-87
2021/12/31 03:14:33;;;;;;;6.53;1.67;;;14.20;99.90;;;;;;6184684;23;20001;-86
2021/12/31 03:17:01;;;;;;;3.45;1.65;;;14.20;99.90;;;;;;6184185;23;20008;-87
2021/12/31 03:19:30;;;;;;;2.25;1.30;;;14.20;99.90;;;;;;6184674;23;20071;-87
2021/12/31 03:21:55;;;;;;;2.13;1.30;;;14.20;99.90;;;;;;6184060;23;20036;-88
2021/12/31 03:24:21;;;;;;;4.28;1.40;;;14.10;99.90;;;;;;6160129;23;20005;-87
2021/12/31 03:26:47;;;;;;;4.65;1.58;;;14.20;99.90;;;;;;6184670;23;20005;-87
2021/12/31 03:29:15;;;;;;;2.65;1.40;;;14.20;99.90;;;;;;6185582;23;20068;-87
2021/12/31 03:31:43;;;;;;;4.78;1.52;;;14.20;99.90;;;;;;6184142;23;20063;-87
2021/12/31 03:34:13;;;;;;;5.25;1.67;;;14.20;99.90;;;;;;6185500;23;20071;-86
2021/12/31 03:36:40;;;;;;;4.88;1.80;;;14.20;99.90;;;;;;6184016;23;20005;-87
2021/12/31 03:39:11;;;;;;;5.63;1.70;;;14.10;99.90;;;;;;6184226;23;20009;-87
2021/12/31 03:41:39;;;;;;;4.10;1.40;;;14.20;99.90;;;;;;6184919;23;20009;-87
2021/12/31 03:44:06;;;;;;;4.30;1.48;;;14.20;99.90;;;;;;6184177;23;20427;-87
2021/12/31 03:46:34;;;;;;;3.03;1.50;;;14.20;99.90;;;;;;6159428;23;20458;-87
2021/12/31 03:49:00;;;;;;;2.97;1.58;;;14.20;99.90;;;;;;6184435;23;20007;-87
2021/12/31 03:51:26;;;;;;;4.07;1.70;;;14.20;99.90;;;;;;6184389;23;20031;-87
2021/12/31 03:53:52;;;;;;;8.25;1.85;;;14.10;99.90;;;;;;6184615;23;20072;-87
2021/12/31 03:56:21;;;;;;;4.32;1.60;;;14.10;99.90;;;;;;6159536;23;20012;-87
2021/12/31 03:58:46;;;;;;;4.80;1.70;;;14.10;99.90;;;;;;6184473;23;20335;-87
2021/12/31 04:01:17;;;;;;;5.13;1.63;;;14.10;99.90;;;;;;6159283;23;20084;-87
2021/12/31 04:03:42;;;;;;;3.53;1.50;;;14.10;99.90;;;;;;6160926;23;20013;-88
2021/12/31 04:06:08;;;;;;;4.35;1.70;;;14.10;99.90;;;;;;6185002;23;20150;-87
2021/12/31 04:08:39;;;;;;;2.85;1.50;;;14.10;99.90;;;;;;6161185;23;20013;-87
2021/12/31 04:11:05;;;;;;;4.15;1.67;;;14.10;99.90;;;;;;6188251;23;20009;-87
2021/12/31 04:13:31;;;;;;;4.70;1.80;;;14.10;99.90;;;;;;6212797;23;20033;-87
2021/12/31 04:15:57;;;;;;;3.75;1.63;;;14.10;99.90;;;;;;6212815;23;20005;-86
2021/12/31 04:18:25;;;;;;;4.53;1.90;;;14.20;99.90;;;;;;6211953;23;20028;-87
2021/12/31 04:20:55;;;;;;;4.88;1.73;;;14.10;99.90;;;;;;6211643;23;20008;-86
2021/12/31 04:23:32;;;;;;;4.88;1.90;;;14.10;99.90;;;;;;6174523;23;20786;-87
2021/12/31 04:25:59;;;;;;;2.67;1.33;;;14.10;99.90;;;;;;6185000;23;20021;-88
2021/12/31 04:28:26;;;;;;;5.85;2.08;;;14.10;99.90;;;;;;6184648;23;20009;-87
2021/12/31 04:30:55;;;;;;;2.38;1.48;;;14.10;99.90;;;;;;6184478;23;20005;-87
2021/12/31 04:33:22;;;;;;;5.90;1.85;;;14.10;99.90;;;;;;6183518;23;20084;-87
2021/12/31 04:35:51;;;;;;;4.50;1.90;;;14.10;99.90;;;;;;6183928;23;20017;-87
2021/12/31 04:38:16;;;;;;;4.00;1.75;;;14.10;99.90;;;;;;6184077;23;20014;-88
2021/12/31 04:40:47;;;;;;;3.13;1.48;;;14.10;99.90;;;;;;6135078;23;20329;-87
2021/12/31 04:43:16;;;;;;;5.60;2.00;;;14.10;99.90;;;;;;6185325;23;19997;-87
2021/12/31 04:45:44;;;;;;;4.90;1.83;;;14.10;99.90;;;;;;6184140;23;20005;-87
2021/12/31 04:48:10;;;;;;;4.75;1.55;;;14.10;99.90;;;;;;6159464;23;20006;-87
2021/12/31 04:50:36;;;;;;;3.53;1.42;;;14.10;99.90;;;;;;6134739;23;20005;-87
2021/12/31 04:53:07;;;;;;;2.67;1.52;;;14.00;99.90;;;;;;6184024;23;20004;-87
2021/12/31 04:55:37;;;;;;;2.45;1.58;;;14.00;99.90;;;;;;6185554;23;20005;-87
2021/12/31 04:58:03;;;;;;;8.40;2.05;;;14.00;99.90;;;;;;6183768;23;20071;-88
2021/12/31 05:00:29;;;;;;;5.28;1.67;;;14.00;99.90;;;;;;6183834;23;20091;-87
2021/12/31 05:03:07;;;;;;;4.55;1.70;;;14.00;99.90;;;;;;6183962;23;20446;-87
2021/12/31 05:05:36;;;;;;;4.47;1.90;;;14.10;99.90;;;;;;6161662;23;20079;-87
2021/12/31 05:08:02;;;;;;;4.00;1.70;;;14.00;99.90;;;;;;6159344;23;20013;-87
2021/12/31 05:10:32;;;;;;;3.70;1.92;;;14.00;99.90;;;;;;6183505;23;20017;-87
2021/12/31 05:13:02;;;;;;;5.25;2.10;;;14.00;99.90;;;;;;6185868;23;20001;-87
2021/12/31 05:15:35;;;;;;;5.80;1.90;;;13.90;99.90;;;;;;6183864;23;20008;-87
2021/12/31 05:18:01;;;;;;;3.83;1.60;;;14.00;99.90;;;;;;6184020;23;20005;-87
2021/12/31 05:20:35;;;;;;;5.82;2.00;;;13.90;99.90;;;;;;6183137;23;20015;-87
2021/12/31 05:23:00;;;;;;;6.43;2.05;;;14.00;99.90;;;;;;6159459;23;20443;-87
2021/12/31 05:25:29;;;;;;;5.22;2.30;;;14.00;99.90;;;;;;6183452;23;19997;-86
2021/12/31 05:27:55;;;;;;;5.40;1.95;;;14.00;99.90;;;;;;6184003;23;20013;-86
2021/12/31 05:30:21;;;;;;;5.90;2.10;;;13.90;99.90;;;;;;6182957;23;20051;-87
2021/12/31 05:32:48;;;;;;;5.20;2.10;;;13.90;99.90;;;;;;6183820;23;20001;-87
2021/12/31 05:35:14;;;;;;;5.82;2.08;;;13.90;99.90;;;;;;6184960;23;20020;-86
2021/12/31 05:37:42;;;;;;;4.85;2.10;;;13.90;99.90;;;;;;6160477;23;20092;-87
2021/12/31 05:40:11;;;;;;;5.75;2.20;;;13.90;99.90;;;;;;6185527;23;20339;-87
2021/12/31 05:42:37;;;;;;;5.32;2.05;;;13.90;99.90;;;;;;6161036;23;20013;-86
2021/12/31 05:45:04;;;;;;;5.43;2.13;;;13.90;99.90;;;;;;6186059;23;20004;-86
2021/12/31 05:47:32;;;;;;;4.88;2.38;;;13.90;99.90;;;;;;6186852;23;20005;-87
2021/12/31 05:49:57;;;;;;;4.78;2.00;;;13.90;99.90;;;;;;6161025;23;20088;-86
2021/12/31 05:52:23;;;;;;;4.18;2.00;;;13.90;99.90;;;;;;6160829;23;20088;-86
2021/12/31 05:54:52;;;;;;;5.55;2.70;;;13.90;99.90;;;;;;6187230;23;19997;-86
2021/12/31 05:57:21;;;;;;;7.88;2.88;;;13.90;99.90;;;;;;6193879;23;20395;-86
2021/12/31 05:59:46;;;;;;;4.80;2.33;;;13.80;99.90;;;;;;6164401;23;20004;-86
2021/12/31 06:02:15;;;;;;;6.03;2.42;;;13.80;99.90;;;;;;6188133;23;20023;-86
2021/12/31 06:04:43;;;;;;;3.80;2.40;;;13.80;99.90;;;;;;6213459;23;19985;-87
2021/12/31 06:07:09;;;;;;;6.15;2.40;;;13.80;99.90;;;;;;6212172;23;19989;-89
2021/12/31 06:09:35;;;;;;;5.78;2.20;;;13.80;99.90;;;;;;6175117;23;20035;-87
2021/12/31 06:12:01;;;;;;;3.58;2.00;;;13.80;99.90;;;;;;6188016;23;20024;-88
2021/12/31 06:14:27;;;;;;;3.38;2.03;;;13.80;99.90;;;;;;6185916;23;20040;-89
2021/12/31 06:16:53;;;;;;;7.32;2.40;;;13.80;99.90;;;;;;6186098;23;20005;-89
2021/12/31 06:19:21;;;;;;;4.55;2.28;;;13.80;99.90;;;;;;6185723;23;20336;-89
2021/12/31 06:21:47;;;;;;;5.15;2.25;;;13.80;99.90;;;;;;6187387;23;20001;-88
2021/12/31 06:24:16;;;;;;;4.10;2.10;;;13.80;99.90;;;;;;6186359;23;20005;-89
2021/12/31 06:26:44;;;;;;;4.97;2.00;;;13.80;99.90;;;;;;6185749;23;20005;-88
2021/12/31 06:29:11;;;;;;;3.55;2.30;;;13.80;99.90;;;;;;6186298;23;20008;-90
2021/12/31 06:31:39;;;;;;;3.78;2.10;;;13.80;99.90;;;;;;6185714;23;20012;-90
2021/12/31 06:34:05;;;;;;;5.07;2.38;;;13.80;99.90;;;;;;6160645;23;20503;-89
2021/12/31 06:36:31;;;;;;;4.28;2.05;;;13.80;99.90;;;;;;6185412;23;20033;-89
2021/12/31 06:39:08;;;;;;;5.03;1.98;;;13.80;99.90;;;;;;6161010;23;20354;-91
2021/12/31 06:41:34;;;;;;;6.10;2.85;;;13.80;99.90;;;;;;6185865;23;20048;-89
2021/12/31 06:44:07;;;;;;;4.10;2.00;;;13.80;99.90;;;;;;6185118;23;19997;-88
2021/12/31 06:46:35;;;;;;;3.80;2.00;;;13.70;99.90;;;;;;6161760;23;20001;-89
2021/12/31 06:49:01;;;;;;;4.43;2.13;;;13.70;99.90;;;;;;6186206;23;20013;-88
2021/12/31 06:51:27;;;;;;;4.90;2.20;;;13.70;99.90;;;;;;6184524;23;20032;-87
2021/12/31 06:53:56;;;;;;;4.40;2.35;;;13.70;99.90;;;;;;6161284;23;20084;-88
2021/12/31 06:56:31;;;;;;;6.18;2.20;;;13.70;99.90;;;;;;6185029;23;20435;-88
2021/12/31 06:58:57;;;;;;;8.63;4.85;;;13.70;99.90;;;;;;6185215;23;20084;-87
2021/12/31 07:01:25;;;;;;;6.10;3.28;;;13.60;99.90;;;;;;6184905;23;20466;-87
2021/12/31 07:03:51;;;;;;;5.85;2.78;;;13.60;99.90;;;;;;6185555;23;20029;-87
2021/12/31 07:06:16;;;;;;;4.25;2.65;;;13.60;99.90;;;;;;6184259;23;20419;-88
2021/12/31 07:08:42;;;;;;;4.97;2.03;;;13.50;99.90;;;;;;6184035;23;20012;-87
2021/12/31 07:11:10;;;;;;;3.58;2.10;;;13.50;99.90;;;;;;6184450;23;20419;-87
2021/12/31 07:13:44;;;;;;;2.97;2.10;;;13.50;99.90;;;;;;6184658;23;20084;-88
2021/12/31 07:16:09;;;;;;;2.35;1.67;;;13.50;99.90;;;;;;6159981;23;20016;-87
2021/12/31 07:18:45;;;;;;;4.45;2.05;;;13.40;99.90;;;;;;6159665;23;20013;-87
2021/12/31 07:21:18;;;;;;;3.75;2.03;;;13.40;99.90;;;;;;6184947;23;20008;-87
2021/12/31 07:23:45;;;;;;;7.25;2.40;;;13.40;99.90;;;;;;6184699;23;20063;-88
2021/12/31 07:26:14;;;;;;;5.15;1.95;;;13.40;99.90;;;;;;6159588;23;20009;-87
2021/12/31 07:28:53;;;;;;;;;;;;;;;;;;;;;
2021/12/31 07:31:21;;;;;;;2.65;1.75;;;13.40;99.90;;;;;;6186759;23;20084;-90
2021/12/31 07:33:52;;;;;;;3.67;1.80;;;13.30;99.90;;;;;;6160748;23;20021;-90
2021/12/31 07:36:18;;;;;;;;;;;13.30;99.90;;;;;;6187995;23;20020;-90
2021/12/31 07:38:55;;;;;;;4.95;2.25;;;13.30;99.90;;;;;;6186221;23;19912;-91
2021/12/31 07:41:26;;;;;;;11.05;7.20;;;13.30;99.90;;;;;;6186176;23;20001;-89
2021/12/31 07:43:57;;;;;;;;;;;13.20;99.90;;;;;;6192762;23;20001;-90
2021/12/31 07:46:32;;;;;;;5.43;2.30;;;13.20;99.90;;;;;;6212448;23;19888;-90
2021/12/31 07:49:03;;;;;;;5.53;2.47;;;13.20;99.90;;;;;;6213185;23;20300;-92
2021/12/31 07:51:39;;;;;;;4.50;2.40;;;13.10;99.90;;;;;;6188260;23;20035;-89
2021/12/31 07:54:10;;;;;;;5.65;2.30;;;13.10;99.90;;;;;;6187067;23;20028;-89
2021/12/31 07:56:39;;;;;;;3.90;1.98;;;13.10;99.90;;;;;;6189349;23;20079;-89
2021/12/31 07:59:10;;;;;;;3.03;2.00;;;13.10;99.90;;;;;;6185938;23;20071;-90
2021/12/31 08:01:44;;;;;;;3.35;1.85;;;13.10;99.90;;;;;;6185809;23;20105;-92
2021/12/31 08:04:33;;;;;;;4.47;2.30;;;13.10;99.90;;;;;;6162209;23;20015;-90
2021/12/31 08:07:02;;;;;;;4.35;2.03;;;13.00;99.90;;;;;;6185689;23;20001;-90
2021/12/31 08:09:44;;;;;;;7.28;3.80;;;13.00;99.90;;;;;;6184773;23;20001;-89
2021/12/31 08:12:17;;;;;;;6.32;2.63;;;13.00;99.90;;;;;;6162895;23;20029;-88
2021/12/31 08:14:43;;;;;;;3.80;2.20;;;13.00;99.90;;;;;;6162088;23;20024;-91
2021/12/31 08:17:11;;;;;;;6.43;2.25;;;13.00;99.90;;;;;;6185051;23;20092;-91
2021/12/31 08:19:42;;;;;;;3.72;2.15;;;13.00;99.90;;;;;;6159794;23;20044;-90
2021/12/31 08:22:11;;;;;;;;;;;13.00;99.90;;;;;;6185084;23;20008;-89
2021/12/31 08:24:39;;;;;;;4.43;2.20;;;13.00;99.90;;;;;;6185012;23;19951;-88
2021/12/31 08:27:07;;;;;;;3.97;2.17;;;13.00;99.90;;;;;;6185327;23;20510;-90
2021/12/31 08:29:33;;;;;;;6.18;2.50;;;12.90;99.90;;;;;;6160351;23;20071;-91
2021/12/31 08:31:59;;;;;;;4.15;2.10;;;12.90;99.90;;;;;;6185392;23;20418;-91
2021/12/31 08:34:29;;;;;;;4.25;2.13;;;12.90;99.90;;;;;;6184807;23;20019;-91
2021/12/31 08:36:55;;;;;;;3.92;2.42;;;12.90;99.90;;;;;;6185940;23;20092;-90
2021/12/31 08:39:21;;;;;;;5.20;2.13;;;12.90;99.90;;;;;;6186936;23;20404;-92
2021/12/31 08:41:50;;;;;;;4.22;1.80;;;12.90;99.90;;;;;;6185226;23;20024;-91
2021/12/31 08:44:22;;;;;;;5.03;2.50;;;12.90;99.90;;;;;;6185241;23;20009;-91
2021/12/31 08:46:47;;;;;;;4.40;2.25;;;12.90;99.90;;;;;;6185129;23;20001;-90
2021/12/31 08:49:23;;;;;;;5.53;2.03;;;13.00;99.90;;;;;;6185727;23;20001;-90
2021/12/31 08:51:52;;;;;;;2.78;2.13;;;13.00;99.90;;;;;;6161643;23;20005;-90
2021/12/31 08:54:27;;;;;;;5.72;2.03;;;13.00;99.90;;;;;;6185246;23;20494;-92
2021/12/31 08:56:57;;;;;;;3.83;2.03;;;13.00;99.90;;;;;;6185100;23;20009;-92
2021/12/31 08:59:30;;;;;;;2.70;2.00;;;13.00;99.90;;;;;;6161241;23;20025;-90
2021/12/31 09:02:01;;;;;;;4.30;2.30;;;13.00;99.90;;;;;;6185010;23;20263;-92
2021/12/31 09:04:29;;;;;;;3.70;2.45;;;13.00;99.90;;;;;;6185842;23;20024;-94
2021/12/31 09:07:02;;;;;;;4.20;2.00;;;13.00;99.90;;;;;;6186793;23;20060;-91
2021/12/31 09:09:33;;;;;;;3.00;2.05;;;12.90;99.90;;;;;;6140849;23;20005;-90
2021/12/31 09:12:01;;;;;;;3.60;1.98;;;13.00;99.90;;;;;;6188766;23;20004;-88
2021/12/31 09:14:30;;;;;;;4.07;2.33;;;13.00;99.90;;;;;;6186616;23;20001;-89
2021/12/31 09:17:13;;;;;;;2.90;1.83;;;13.00;99.90;;;;;;6185867;23;19997;-88
2021/12/31 09:19:41;;;;;;;3.75;1.80;;;13.00;99.90;;;;;;6186763;23;20008;-89
2021/12/31 09:22:14;;;;;;;4.10;1.85;;;13.00;99.90;;;;;;6187808;23;20005;-89
2021/12/31 09:24:40;;;;;;;3.00;1.83;;;13.00;99.90;;;;;;6198348;23;20001;-89
2021/12/31 09:27:06;;;;;;;4.30;1.95;;;13.00;99.90;;;;;;6182870;23;20057;-89
2021/12/31 09:29:35;;;;;;;5.95;1.92;;;13.00;99.90;;;;;;6213981;23;20016;-92
2021/12/31 09:32:11;;;;;;;;;;;;;;;;;;;;;
2021/12/31 09:34:56;;;;;;;3.55;2.20;;;13.00;99.90;;;;;;6210385;23;20049;-90
2021/12/31 09:37:29;;;;;;;3.28;1.95;;;13.10;99.90;;;;;;6169868;23;20009;-95
2021/12/31 09:40:03;;;;;;;3.20;2.05;;;13.10;99.90;;;;;;6164331;23;20071;-89
2021/12/31 09:42:29;;;;;;;3.53;2.15;;;13.10;99.90;;;;;;6187135;23;20008;-90
2021/12/31 09:44:57;;;;;;;3.33;1.90;;;13.10;99.90;;;;;;6188326;23;20004;-89
2021/12/31 09:50:15;;;;;;;4.63;2.20;;;13.10;99.90;;;;;;6175457;23;20420;-88
2021/12/31 09:52:48;;;;;;;4.22;2.13;;;13.10;99.90;;;;;;6186027;23;20005;-89
2021/12/31 09:55:36;;;;;;;3.53;1.55;;;13.10;99.90;;;;;;6187788;23;20037;-89
2021/12/31 09:58:09;;;;;;;5.28;1.83;;;13.10;99.90;;;;;;6185801;23;20005;-89
2021/12/31 10:00:44;;;;;;;2.47;1.70;;;13.20;99.90;;;;;;6185875;23;20009;-90
2021/12/31 10:03:25;;;;;;;2.75;1.65;;;13.20;99.90;;;;;;6185724;23;20079;-88
2021/12/31 10:05:54;;;;;;;2.90;1.85;;;13.20;99.90;;;;;;6185283;23;20004;-89
2021/12/31 10:08:28;;;;;;;4.32;2.17;;;13.20;99.90;;;;;;6161339;23;20490;-89
2021/12/31 10:14:16;;;;;;;3.05;2.10;;;13.30;99.90;;;;;;6187516;23;20498;-91
2021/12/31 10:16:44;;;;;;;2.85;1.75;;;13.30;99.90;;;;;;6186852;23;20072;-91
2021/12/31 10:19:35;;;;;;;3.00;1.70;;;13.30;99.90;;;;;;6161501;23;20009;-90
2021/12/31 10:22:11;;;;;;;;;;;;;;;;;;;;;
2021/12/31 10:24:51;;;;;;;2.22;1.65;;;13.30;99.90;;;;;;6186103;23;20085;-89
2021/12/31 10:27:19;;;;;;;4.90;1.75;;;13.30;99.90;;;;;;6185510;23;20324;-88
2021/12/31 10:29:53;;;;;;;4.45;1.92;;;13.30;99.90;;;;;;6185829;23;20071;-88
2021/12/31 10:32:19;;;;;;;2.42;1.90;;;13.30;99.90;;;;;;6186139;23;20001;-89
2021/12/31 10:34:48;;;;;;;2.97;1.80;;;13.30;99.90;;;;;;6185376;23;20447;-91
2021/12/31 10:37:24;;;;;;;3.42;1.90;;;13.30;99.90;;;;;;6185977;23;20063;-90
2021/12/31 10:39:59;;;;;;;4.53;1.92;;;13.30;99.90;;;;;;6186151;23;20340;-89
2021/12/31 10:42:32;;;;;;;3.80;1.88;;;13.30;99.90;;;;;;6185751;23;20101;-90
2021/12/31 10:45:07;;;;;;;2.40;1.73;;;13.30;99.90;;;;;;6185693;23;20036;-89
2021/12/31 10:48:04;;;;;;;3.40;1.98;;;13.40;99.90;;;;;;6160947;23;20018;-90
2021/12/31 10:50:34;;;;;;;3.00;1.80;;;13.40;99.90;;;;;;6186953;23;20023;-89
2021/12/31 10:53:10;;;;;;;3.63;1.92;;;13.40;99.90;;;;;;6185419;23;20033;-89
2021/12/31 10:55:44;;;;;;;3.00;1.83;;;13.40;99.90;;;;;;6186212;23;20382;-88
2021/12/31 10:58:14;;;;;;;2.88;1.60;;;13.40;99.90;;;;;;6161866;23;20005;-89
2021/12/31 11:00:46;;;;;;;2.50;1.58;;;13.40;99.90;;;;;;6186222;23;20005;-90
2021/12/31 11:03:17;;;;;;;2.70;1.85;;;13.50;99.90;;;;;;6186103;23;20005;-89
2021/12/31 11:05:46;;;;;;;12.77;8.75;;;13.50;99.90;;;;;;6186735;23;19997;-89
2021/12/31 11:08:13;;;;;;;7.60;4.03;;;13.50;99.90;;;;;;6186815;23;20008;-90
2021/12/31 11:10:40;;;;;;;4.78;2.38;;;13.50;99.90;;;;;;6187273;23;20063;-88
2021/12/31 11:13:15;;;;;;;4.60;2.42;;;13.50;99.90;;;;;;6193631;23;20008;-90
2021/12/31 11:15:43;;;;;;;3.53;1.92;;;13.60;99.90;;;;;;6213538;23;19993;-88
2021/12/31 11:18:22;;;;;;;;;;;;;;;;;;;;;
2021/12/31 11:21:10;;;;;;;3.92;2.50;;;13.60;99.90;;;;;;6202691;23;20016;-95
2021/12/31 11:23:36;;;;;;;4.45;2.45;;;13.60;99.90;;;;;;6189917;23;20339;-90
2021/12/31 11:26:13;;;;;;;3.15;2.30;;;13.60;99.90;;;;;;6188031;23;19997;-91
2021/12/31 11:28:44;;;;;;;5.30;2.35;;;13.60;99.90;;;;;;6187705;23;20127;-89
2021/12/31 11:31:19;;;;;;;6.50;2.50;;;13.60;99.90;;;;;;6185565;23;20005;-90
2021/12/31 11:34:07;;;;;;;;;;;;;;;;;;;;;
2021/12/31 11:37:05;;;;;;;3.92;2.15;;;13.60;99.90;;;;;;6186819;23;20095;-91
2021/12/31 11:39:36;;;;;;;4.30;2.13;;;13.70;99.90;;;;;;6166520;23;20067;-90
2021/12/31 11:42:09;;;;;;;4.80;2.50;;;13.70;99.90;;;;;;6185626;23;20005;-90
2021/12/31 11:45:07;;;;;;;3.97;1.80;;;13.70;99.90;;;;;;6186199;23;20010;-94
2021/12/31 11:47:44;;;;;;;4.97;2.58;;;13.70;99.90;;;;;;6185820;23;20011;-94
2021/12/31 11:50:33;;;;;;;3.97;2.38;;;13.70;99.90;;;;;;6163482;23;20005;-91
2021/12/31 11:53:32;;;;;;;4.50;2.40;;;13.70;99.90;;;;;;6146332;23;20092;-94
2021/12/31 11:56:28;;;;;;;;;;;;;;;;;;;;;
2021/12/31 11:58:54;;;;;;;3.80;2.38;;;13.70;99.90;;;;;;6156124;23;20052;-95
2021/12/31 12:01:55;;;;;;;4.47;2.13;;;13.70;99.90;;;;;;6167855;23;20009;-94
2021/12/31 12:04:40;;;;;;;3.95;2.13;;;13.70;99.90;;;;;;6161667;23;20017;-93
2021/12/31 12:07:16;;;;;;;4.47;2.40;;;13.70;99.90;;;;;;6155723;23;20012;-94
2021/12/31 12:09:45;;;;;;;5.13;2.55;;;13.80;99.90;;;;;;6157170;23;19998;-92
2021/12/31 12:12:50;;;;;;;3.80;2.63;;;13.80;99.90;;;;;;6156003;23;20003;-93
2021/12/31 12:15:19;;;;;;;4.03;2.47;;;13.80;99.90;;;;;;6156568;23;20032;-93
2021/12/31 12:17:48;;;;;;;5.97;2.60;;;13.80;99.90;;;;;;6156227;23;20348;-92
2021/12/31 12:20:19;;;;;;;5.78;2.55;;;13.80;99.90;;;;;;6155156;23;20300;-94
2021/12/31 12:22:53;;;;;;;;;;;13.80;99.90;;;;;;6156108;23;20005;-92
2021/12/31 12:25:20;;;;;;;4.38;2.13;;;13.80;99.90;;;;;;6157289;23;19932;-93
2021/12/31 12:28:12;;;;;;;;;;;;;;;;;;;;;
2021/12/31 12:31:14;;;;;;;;;;;;;;;;;;;;;
2021/12/31 12:34:14;;;;;;;;;;;;;;;;;;;;;
2021/12/31 12:36:44;;;;;;;;;;;13.80;99.90;;;;;;6156967;23;20084;-93
2021/12/31 12:39:18;;;;;;;4.35;2.63;;;13.80;99.90;;;;;;6156186;23;19904;-93
2021/12/31 12:41:53;;;;;;;4.70;2.67;;;13.80;99.90;;;;;;6133538;23;20013;-93
2021/12/31 12:44:24;;;;;;;3.35;2.30;;;13.90;99.90;;;;;;6159914;23;19998;-92
2021/12/31 12:47:22;;;;;;;5.15;2.50;;;13.90;99.90;;;;;;6158045;23;20013;-92
2021/12/31 12:50:09;;;;;;;;;;;;;;;;;;;;;
2021/12/31 12:52:45;;;;;;;4.15;2.40;;;14.00;99.90;;;;;;6159877;23;20096;-93
2021/12/31 12:55:21;;;;;;;3.78;2.58;;;14.00;99.90;;;;;;6135885;23;20332;-91
2021/12/31 12:58:27;;;;;;;5.80;2.65;;;14.00;99.90;;;;;;6159350;23;20013;-93
2021/12/31 13:01:07;;;;;;;;;;;;;;;;;;;;;
2021/12/31 13:07:11;;;;;;;5.68;2.40;;;14.00;99.90;;;;;;6185007;23;20013;-92
2021/12/31 13:09:50;;;;;;;6.20;2.92;;;14.00;99.90;;;;;;6183104;23;20005;-83
2021/12/31 13:12:36;;;;;;;4.93;2.85;;;14.00;99.90;;;;;;6134977;23;20282;-93
2021/12/31 13:16:09;;;;;;;4.00;2.70;;;14.00;99.90;;;;;;6158432;23;20001;-91
2021/12/31 13:19:07;;;;;;;;;;;;;;;;;;;;;
2021/12/31 13:24:54;;;;;;;4.60;2.90;;;13.90;99.90;;;;;;6133415;23;20009;-90
2021/12/31 13:27:20;;;;;;;4.40;2.88;;;14.00;99.90;;;;;;6156753;23;20009;-89
2021/12/31 13:29:53;;;;;;;6.93;2.65;;;13.90;99.90;;;;;;6156791;23;20084;-89
2021/12/31 13:32:22;;;;;;;4.68;2.90;;;13.90;99.90;;;;;;6157349;23;20006;-88
2021/12/31 13:34:52;;;;;;;3.30;2.30;;;13.90;99.90;;;;;;6158018;23;19997;-89
2021/12/31 13:37:38;;;;;;;3.30;2.70;;;13.90;99.90;;;;;;6156934;23;20088;-89
2021/12/31 13:40:15;;;;;;;7.88;3.75;;;13.90;99.90;;;;;;6157341;23;20036;-88
2021/12/31 13:43:12;;;;;;;5.38;3.80;;;13.90;99.90;;;;;;6158040;23;19998;-90